Report METAR

 

LIBD - Bari/Palese Macc, Italy
Distance from station: NNW 20km
Dati ricevuti: 02/03/2024 01:20
Cielo sereno o poche nubi
Cielo sereno o poche nubi
 Vento da SSW
Vento: SSW 9 km/h
Temperatura: 7°C
Temperatura Vento: 6°C
P.to Rugiada: 7°C
Umidità: 100%
Pressione: 1009 hPa
Nuvole: Cielo sereno o poche nubi
Visibility: 10 km
2024/03/02 00:20 LIBD 020020Z AUTO 21005KT 9999 // NCD 07/07 Q1009
LIBV - Gioia Del Colle, Italy
Distance from station: SSE 21km
Dati ricevuti: 02/03/2024 00:55
Nebbia, Parzialmente Nuvoloso
Nebbia, Parzialmente Nuvoloso
 Vento da Variabile
Vento: Variabile 2 km/h
Temperatura: 7°C
P.to Rugiada: 6°C
Umidità: 93%
Pressione: 1007 hPa
Riassunto: Nebbia
Nuvole: Parzialmente nuvoloso
Visibility: 1 km
Cloud details: Parzialmente nuvoloso 152 m
2024/03/01 23:55 LIBV 012355Z VRB01KT 0500 R32L//// R14R//// FG SCT005 07/06 Q1007